Time;durP1;ratioP1;P1;durP2;ratioP2;P2;SDS_P1;SDS_P2;PMS_P1;PMS_P2;Temp;Humidity;BMP_temperature;BMP_pressure;BME280_temperature;BME280_humidity;BME280_pressure;Samples;Min_cycle;Max_cycle;Signal;HPM_P1;HPM_P2
2023/08/02 00:00:42;;;;;;;3.80;2.78;;;;;;;;;;5066685;28;20016;-74
2023/08/02 00:03:08;;;;;;;6.50;3.78;;;;;;;;;;5093267;28;20024;-74
2023/08/02 00:05:33;;;;;;;9.75;3.65;;;;;;;;;;5101628;28;20458;-74
2023/08/02 00:07:58;;;;;;;6.22;3.92;;;;;;;;;;5079938;28;20436;-74
2023/08/02 00:10:24;;;;;;;5.28;3.70;;;;;;;;;;5093463;28;20031;-74
2023/08/02 00:12:51;;;;;;;4.50;3.03;;;;;;;;;;5075381;28;20085;-74
2023/08/02 00:15:16;;;;;;;8.80;4.07;;;;;;;;;;5082149;28;20015;-74
2023/08/02 00:17:42;;;;;;;4.10;2.65;;;;;;;;;;5078705;28;20370;-76
2023/08/02 00:20:07;;;;;;;5.93;3.30;;;;;;;;;;5095227;28;20023;-76
2023/08/02 00:22:33;;;;;;;5.93;3.47;;;;;;;;;;5095319;28;20066;-74
2023/08/02 00:24:58;;;;;;;5.80;3.03;;;;;;;;;;5095922;28;20473;-74
2023/08/02 00:27:23;;;;;;;4.82;2.95;;;;;;;;;;5113892;28;20019;-76
2023/08/02 00:29:49;;;;;;;7.65;3.58;;;;;;;;;;5113221;28;20459;-76
2023/08/02 00:32:23;;;;;;;5.30;3.45;;;;;;;;;;5091442;28;20393;-76
2023/08/02 00:34:54;;;;;;;6.78;3.72;;;;;;;;;;5093646;28;20105;-76
2023/08/02 00:37:20;;;;;;;7.47;4.50;;;;;;;;;;5093253;28;20028;-76
2023/08/02 00:39:49;;;;;;;5.80;4.18;;;;;;;;;;5096747;28;20093;-76
2023/08/02 00:42:17;;;;;;;4.70;3.53;;;;;;;;;;5062434;28;20028;-76
2023/08/02 00:44:42;;;;;;;5.88;3.47;;;;;;;;;;5079284;28;20024;-76
2023/08/02 00:47:07;;;;;;;9.70;3.63;;;;;;;;;;5097395;28;20098;-76
2023/08/02 00:49:33;;;;;;;7.32;4.32;;;;;;;;;;5078983;28;20016;-76
2023/08/02 00:51:59;;;;;;;6.30;4.30;;;;;;;;;;5078990;28;20067;-76
2023/08/02 00:54:24;;;;;;;6.80;3.92;;;;;;;;;;5096510;28;20031;-76
2023/08/02 00:56:50;;;;;;;7.47;3.63;;;;;;;;;;5078647;28;20059;-76
2023/08/02 00:59:15;;;;;;;4.40;3.20;;;;;;;;;;5080341;28;20019;-76
2023/08/02 01:01:41;;;;;;;8.07;3.92;;;;;;;;;;5099001;28;20043;-76
2023/08/02 01:04:06;;;;;;;6.80;4.03;;;;;;;;;;5098998;28;20026;-76
2023/08/02 01:06:38;;;;;;;5.53;3.50;;;;;;;;;;5099202;28;20403;-76
2023/08/02 01:09:07;;;;;;;4.97;2.72;;;;;;;;;;5098459;28;20031;-76
2023/08/02 01:12:03;;;;;;;7.03;3.90;;;;;;;;;;5098142;28;20011;-76
2023/08/02 01:14:29;;;;;;;6.93;3.75;;;;;;;;;;5077979;28;20463;-76
2023/08/02 01:16:56;;;;;;;5.10;3.78;;;;;;;;;;5081069;28;20024;-76
2023/08/02 01:19:22;;;;;;;5.07;3.83;;;;;;;;;;5099096;28;20546;-76
2023/08/02 01:21:48;;;;;;;4.90;3.08;;;;;;;;;;5098415;28;20103;-76
2023/08/02 01:24:13;;;;;;;4.00;3.20;;;;;;;;;;5083163;28;20110;-76
2023/08/02 01:26:41;;;;;;;5.22;3.47;;;;;;;;;;5061566;28;20028;-76
2023/08/02 01:29:12;;;;;;;4.22;3.15;;;;;;;;;;5085187;28;20024;-76
2023/08/02 01:31:40;;;;;;;6.57;4.30;;;;;;;;;;5081865;28;20393;-76
2023/08/02 01:34:05;;;;;;;6.57;3.80;;;;;;;;;;5098611;28;20019;-76
2023/08/02 01:36:31;;;;;;;5.32;3.67;;;;;;;;;;5098491;28;20023;-76
2023/08/02 01:38:56;;;;;;;6.28;4.60;;;;;;;;;;5098378;28;20076;-76
2023/08/02 01:41:21;;;;;;;5.40;4.00;;;;;;;;;;5097979;28;20024;-76
2023/08/02 01:43:47;;;;;;;5.25;2.90;;;;;;;;;;5116597;28;20396;-75
2023/08/02 01:46:12;;;;;;;6.28;4.10;;;;;;;;;;5098204;28;20024;-76
2023/08/02 01:48:37;;;;;;;8.15;4.18;;;;;;;;;;5116409;28;20016;-76
2023/08/02 01:51:03;;;;;;;6.10;3.72;;;;;;;;;;5115797;28;20027;-76
2023/08/02 01:53:28;;;;;;;6.15;3.97;;;;;;;;;;5116430;28;20023;-76
2023/08/02 01:55:53;;;;;;;7.15;4.15;;;;;;;;;;5097712;28;20062;-76
2023/08/02 01:58:19;;;;;;;8.38;4.60;;;;;;;;;;5098103;28;20062;-76
2023/08/02 02:00:44;;;;;;;5.30;3.70;;;;;;;;;;5098715;28;20107;-76
2023/08/02 02:03:10;;;;;;;4.63;3.38;;;;;;;;;;5116358;28;20062;-76
2023/08/02 02:05:36;;;;;;;6.15;3.75;;;;;;;;;;5098388;28;20059;-76
2023/08/02 02:08:01;;;;;;;6.40;4.30;;;;;;;;;;5115622;28;20420;-76
2023/08/02 02:10:26;;;;;;;9.43;4.00;;;;;;;;;;5116337;28;20020;-76
2023/08/02 02:12:51;;;;;;;7.57;3.40;;;;;;;;;;5116152;28;20099;-75
2023/08/02 02:15:17;;;;;;;5.90;3.47;;;;;;;;;;5116051;28;20031;-76
2023/08/02 02:17:43;;;;;;;5.07;3.65;;;;;;;;;;5080804;28;20031;-76
2023/08/02 02:20:08;;;;;;;6.00;3.35;;;;;;;;;;5097259;28;20485;-76
2023/08/02 02:22:34;;;;;;;7.57;5.32;;;;;;;;;;5115564;28;20471;-75
2023/08/02 02:24:59;;;;;;;6.10;3.50;;;;;;;;;;5097669;28;20435;-76
2023/08/02 02:27:24;;;;;;;6.05;3.97;;;;;;;;;;5115785;28;20038;-75
2023/08/02 02:29:50;;;;;;;6.00;4.05;;;;;;;;;;5115783;28;20230;-76
2023/08/02 02:32:17;;;;;;;4.80;3.60;;;;;;;;;;5115632;28;20031;-76
2023/08/02 02:34:43;;;;;;;5.53;3.78;;;;;;;;;;5115097;28;20072;-75
2023/08/02 02:37:08;;;;;;;4.45;3.20;;;;;;;;;;5115530;28;20102;-75
2023/08/02 02:39:33;;;;;;;4.68;3.33;;;;;;;;;;5097654;28;20020;-75
2023/08/02 02:41:58;;;;;;;4.47;3.40;;;;;;;;;;5097104;28;20023;-76
2023/08/02 02:44:40;;;;;;;5.93;3.47;;;;;;;;;;5080331;28;20024;-75
2023/08/02 02:47:05;;;;;;;6.03;3.53;;;;;;;;;;5080193;28;20024;-75
2023/08/02 02:49:30;;;;;;;4.95;3.40;;;;;;;;;;5079905;28;20020;-75
2023/08/02 02:51:56;;;;;;;12.55;4.15;;;;;;;;;;5115464;28;20015;-75
2023/08/02 02:54:21;;;;;;;6.97;4.18;;;;;;;;;;5115273;28;20469;-75
2023/08/02 02:56:46;;;;;;;5.22;3.78;;;;;;;;;;5115215;28;20022;-75
2023/08/02 02:59:11;;;;;;;4.43;3.28;;;;;;;;;;5114679;28;20388;-75
2023/08/02 03:01:37;;;;;;;5.35;3.67;;;;;;;;;;5095854;28;20032;-75
2023/08/02 03:04:02;;;;;;;5.65;4.05;;;;;;;;;;5096909;28;20023;-75
2023/08/02 03:06:27;;;;;;;5.18;3.50;;;;;;;;;;5115047;28;20031;-75
2023/08/02 03:08:52;;;;;;;5.07;3.67;;;;;;;;;;5114357;28;20132;-75
2023/08/02 03:11:18;;;;;;;8.77;4.45;;;;;;;;;;5096818;28;20024;-75
2023/08/02 03:13:43;;;;;;;8.38;4.10;;;;;;;;;;5115297;28;20016;-75
2023/08/02 03:16:08;;;;;;;6.32;4.13;;;;;;;;;;5114990;28;20030;-75
2023/08/02 03:18:37;;;;;;;8.88;4.82;;;;;;;;;;5075592;28;20024;-75
2023/08/02 03:21:02;;;;;;;7.47;4.25;;;;;;;;;;5094091;28;20031;-75
2023/08/02 03:23:27;;;;;;;6.57;3.75;;;;;;;;;;5062908;28;20032;-75
2023/08/02 03:25:53;;;;;;;6.25;3.95;;;;;;;;;;5102415;28;20501;-75
2023/08/02 03:28:18;;;;;;;5.30;3.80;;;;;;;;;;5096293;28;20019;-75
2023/08/02 03:30:43;;;;;;;5.05;3.42;;;;;;;;;;5095033;28;20096;-75
2023/08/02 03:33:09;;;;;;;8.85;4.00;;;;;;;;;;5093995;28;20153;-76
2023/08/02 03:35:34;;;;;;;9.25;5.07;;;;;;;;;;5075925;28;20028;-75
2023/08/02 03:37:59;;;;;;;7.65;3.90;;;;;;;;;;5075385;28;20493;-76
2023/08/02 03:40:25;;;;;;;5.32;3.58;;;;;;;;;;5059155;28;20020;-75
2023/08/02 03:42:50;;;;;;;4.70;3.40;;;;;;;;;;5075566;28;20675;-75
2023/08/02 03:45:15;;;;;;;6.25;4.00;;;;;;;;;;5075896;28;20085;-76
2023/08/02 03:47:41;;;;;;;10.48;4.18;;;;;;;;;;5083123;28;20023;-75
2023/08/02 03:50:06;;;;;;;5.63;3.17;;;;;;;;;;5095540;28;20022;-75
2023/08/02 03:52:31;;;;;;;4.50;3.17;;;;;;;;;;5095883;28;20465;-75
2023/08/02 03:54:57;;;;;;;4.90;3.67;;;;;;;;;;5078976;28;20106;-75
2023/08/02 03:57:22;;;;;;;5.68;3.17;;;;;;;;;;5078348;28;20392;-75
2023/08/02 03:59:47;;;;;;;4.80;3.47;;;;;;;;;;5095831;28;20049;-75
2023/08/02 04:02:13;;;;;;;7.35;4.68;;;;;;;;;;5113940;28;20024;-75
2023/08/02 04:04:38;;;;;;;5.85;4.18;;;;;;;;;;5078345;28;20016;-75
2023/08/02 04:07:03;;;;;;;7.63;4.82;;;;;;;;;;5113940;28;20072;-75
2023/08/02 04:09:29;;;;;;;6.30;4.18;;;;;;;;;;5096038;28;20489;-75
2023/08/02 04:11:54;;;;;;;5.88;3.38;;;;;;;;;;5095600;28;20058;-75
2023/08/02 04:14:19;;;;;;;5.65;4.47;;;;;;;;;;5108524;22;20040;-75
2023/08/02 04:16:44;;;;;;;5.68;3.28;;;;;;;;;;5113718;28;20461;-75
2023/08/02 04:19:10;;;;;;;5.68;3.38;;;;;;;;;;5112741;28;20102;-75
2023/08/02 04:21:35;;;;;;;8.18;4.60;;;;;;;;;;5113490;28;20023;-73
2023/08/02 04:24:00;;;;;;;9.35;4.78;;;;;;;;;;5113179;28;20027;-73
2023/08/02 04:26:26;;;;;;;7.18;4.50;;;;;;;;;;5094762;28;20015;-73
2023/08/02 04:28:51;;;;;;;8.07;4.45;;;;;;;;;;5113484;28;20027;-72
2023/08/02 04:31:16;;;;;;;7.57;4.70;;;;;;;;;;5094706;28;20058;-73
2023/08/02 04:33:42;;;;;;;6.95;4.57;;;;;;;;;;5113096;28;20020;-73
2023/08/02 04:36:07;;;;;;;8.85;5.22;;;;;;;;;;5113169;28;20019;-72
2023/08/02 04:38:32;;;;;;;7.93;4.50;;;;;;;;;;5113206;28;20058;-72
2023/08/02 04:40:57;;;;;;;9.38;5.00;;;;;;;;;;5112698;28;20120;-72
2023/08/02 04:43:23;;;;;;;10.48;5.32;;;;;;;;;;5094846;28;20423;-72
2023/08/02 04:45:48;;;;;;;8.52;4.43;;;;;;;;;;5078324;28;20031;-72
2023/08/02 04:48:13;;;;;;;8.23;5.07;;;;;;;;;;5112984;28;20028;-73
2023/08/02 04:50:39;;;;;;;7.25;4.57;;;;;;;;;;5113192;28;20028;-72
2023/08/02 04:53:04;;;;;;;6.47;4.72;;;;;;;;;;5113151;28;20454;-73
2023/08/02 04:55:29;;;;;;;9.27;5.68;;;;;;;;;;5112209;28;20494;-73
2023/08/02 04:57:55;;;;;;;7.40;4.35;;;;;;;;;;5113088;28;20566;-73
2023/08/02 05:00:20;;;;;;;6.50;4.28;;;;;;;;;;5094471;28;20047;-72
2023/08/02 05:02:46;;;;;;;7.53;3.63;;;;;;;;;;5112840;28;20465;-72
2023/08/02 05:05:11;;;;;;;6.43;4.45;;;;;;;;;;5094651;28;20374;-72
2023/08/02 05:07:37;;;;;;;11.50;5.57;;;;;;;;;;5094917;28;20473;-73
2023/08/02 05:10:04;;;;;;;11.23;5.63;;;;;;;;;;5094858;28;20015;-73
2023/08/02 05:12:37;;;;;;;9.23;5.20;;;;;;;;;;5112259;28;20552;-73
2023/08/02 05:15:03;;;;;;;9.98;5.13;;;;;;;;;;5094614;28;20032;-73
2023/08/02 05:17:29;;;;;;;7.10;5.63;;;;;;;;;;5112806;28;20023;-73
2023/08/02 05:19:54;;;;;;;9.18;4.95;;;;;;;;;;5094288;28;20059;-72
2023/08/02 05:22:20;;;;;;;8.07;4.90;;;;;;;;;;5112829;28;20080;-72
2023/08/02 05:24:45;;;;;;;8.43;4.93;;;;;;;;;;5113389;28;20066;-72
2023/08/02 05:27:10;;;;;;;9.73;4.78;;;;;;;;;;5098463;28;20027;-72
2023/08/02 05:29:35;;;;;;;7.32;4.30;;;;;;;;;;5116596;28;20065;-73
2023/08/02 05:32:03;;;;;;;8.35;4.68;;;;;;;;;;5116836;28;20528;-73
2023/08/02 05:34:28;;;;;;;6.50;4.45;;;;;;;;;;5098201;28;20031;-72
2023/08/02 05:36:53;;;;;;;8.52;5.15;;;;;;;;;;5098277;28;20020;-73
2023/08/02 05:39:19;;;;;;;10.05;4.30;;;;;;;;;;5116228;28;20395;-73
2023/08/02 05:41:44;;;;;;;8.50;4.40;;;;;;;;;;5116286;28;20024;-74
2023/08/02 05:44:09;;;;;;;7.22;4.15;;;;;;;;;;5097939;28;20028;-73
2023/08/02 05:46:35;;;;;;;10.10;5.50;;;;;;;;;;5098222;28;20111;-73
2023/08/02 05:49:00;;;;;;;9.23;5.25;;;;;;;;;;5115871;28;20495;-73
2023/08/02 05:51:26;;;;;;;9.00;4.93;;;;;;;;;;5116275;28;20059;-73
2023/08/02 05:53:51;;;;;;;9.02;4.90;;;;;;;;;;5116418;28;20449;-73
2023/08/02 05:56:17;;;;;;;8.32;4.63;;;;;;;;;;5116173;28;20504;-75
2023/08/02 05:58:42;;;;;;;4.82;3.78;;;;;;;;;;5098071;28;20103;-75
2023/08/02 06:01:08;;;;;;;6.78;4.80;;;;;;;;;;5097849;28;20023;-75
2023/08/02 06:03:34;;;;;;;8.93;4.53;;;;;;;;;;5097862;28;20028;-76
2023/08/02 06:06:02;;;;;;;6.78;4.18;;;;;;;;;;5080965;28;20024;-76
2023/08/02 06:08:27;;;;;;;7.03;3.70;;;;;;;;;;5116030;28;20092;-76
2023/08/02 06:10:53;;;;;;;10.18;3.83;;;;;;;;;;5097513;28;20020;-75
2023/08/02 06:13:18;;;;;;;7.15;4.70;;;;;;;;;;5116204;28;20020;-75
2023/08/02 06:15:43;;;;;;;7.55;4.10;;;;;;;;;;5115922;28;20023;-75
2023/08/02 06:18:09;;;;;;;8.65;3.92;;;;;;;;;;5116147;28;20077;-75
2023/08/02 06:20:34;;;;;;;9.43;4.40;;;;;;;;;;5097343;28;20057;-75
2023/08/02 06:23:02;;;;;;;7.80;3.60;;;;;;;;;;5115440;28;20031;-76
2023/08/02 06:25:27;;;;;;;9.82;3.80;;;;;;;;;;5115626;28;20107;-75
2023/08/02 06:27:53;;;;;;;8.20;3.53;;;;;;;;;;5115700;28;20069;-76
2023/08/02 06:30:18;;;;;;;4.28;3.10;;;;;;;;;;5115612;28;20019;-75
2023/08/02 06:32:43;;;;;;;7.78;3.13;;;;;;;;;;5115659;28;20024;-76
2023/08/02 06:35:09;;;;;;;4.18;2.22;;;;;;;;;;5115484;28;20114;-75
2023/08/02 06:37:35;;;;;;;3.35;2.47;;;;;;;;;;5115084;28;20024;-76
2023/08/02 06:40:00;;;;;;;4.40;2.42;;;;;;;;;;5097162;28;20091;-76
2023/08/02 06:42:25;;;;;;;5.53;2.22;;;;;;;;;;5115953;28;20039;-75
2023/08/02 06:44:51;;;;;;;6.80;2.30;;;;;;;;;;5115256;28;20034;-76
2023/08/02 06:47:16;;;;;;;7.07;2.42;;;;;;;;;;5115367;28;20103;-75
2023/08/02 06:49:41;;;;;;;7.90;2.40;;;;;;;;;;5096594;28;20024;-75
2023/08/02 06:52:07;;;;;;;5.53;2.03;;;;;;;;;;5115848;28;20045;-75
2023/08/02 06:54:37;;;;;;;6.22;2.20;;;;;;;;;;5115097;28;20023;-75
2023/08/02 06:57:03;;;;;;;4.43;1.95;;;;;;;;;;5114646;28;20496;-75
2023/08/02 06:59:28;;;;;;;3.85;1.88;;;;;;;;;;5115254;28;20024;-75
2023/08/02 07:01:53;;;;;;;4.28;1.75;;;;;;;;;;5096917;28;20026;-75
2023/08/02 07:04:18;;;;;;;3.92;1.75;;;;;;;;;;5096631;28;20068;-75
2023/08/02 07:06:44;;;;;;;4.80;1.88;;;;;;;;;;5115261;28;20015;-75
2023/08/02 07:09:09;;;;;;;5.20;2.50;;;;;;;;;;5114417;28;20473;-75
2023/08/02 07:11:34;;;;;;;3.53;1.50;;;;;;;;;;5114985;28;20434;-75
2023/08/02 07:14:00;;;;;;;4.53;1.50;;;;;;;;;;5114746;28;20397;-75
2023/08/02 07:16:25;;;;;;;4.72;1.90;;;;;;;;;;5114215;28;20024;-75
2023/08/02 07:18:51;;;;;;;5.93;1.63;;;;;;;;;;5114657;28;20111;-76
2023/08/02 07:21:16;;;;;;;4.22;1.80;;;;;;;;;;5114754;28;20031;-75
2023/08/02 07:23:41;;;;;;;6.10;1.80;;;;;;;;;;5114510;28;20381;-75
2023/08/02 07:26:07;;;;;;;3.38;1.70;;;;;;;;;;5114500;28;20073;-75
2023/08/02 07:28:32;;;;;;;7.60;1.95;;;;;;;;;;5096981;28;20042;-75
2023/08/02 07:31:24;;;;;;;4.45;1.98;;;;;;;;;;5096063;28;20019;-75
2023/08/02 07:33:49;;;;;;;3.70;1.85;;;;;;;;;;5109962;28;20078;-75
2023/08/02 07:36:17;;;;;;;6.05;3.08;;;;;;;;;;5114603;28;20055;-76
2023/08/02 07:38:43;;;;;;;3.22;2.00;;;;;;;;;;5096279;28;20023;-76
2023/08/02 07:41:08;;;;;;;6.30;1.90;;;;;;;;;;5095572;28;20389;-75
2023/08/02 07:43:33;;;;;;;4.32;1.80;;;;;;;;;;5095865;28;20028;-72
2023/08/02 07:45:59;;;;;;;4.47;1.80;;;;;;;;;;5113920;28;20087;-72
2023/08/02 07:48:26;;;;;;;7.10;1.65;;;;;;;;;;5113508;28;20024;-72
2023/08/02 07:50:52;;;;;;;2.92;1.65;;;;;;;;;;5095229;28;20388;-73
2023/08/02 07:53:17;;;;;;;3.35;1.60;;;;;;;;;;5113887;28;20024;-72
2023/08/02 07:55:42;;;;;;;5.53;2.50;;;;;;;;;;5114121;28;20023;-72
2023/08/02 07:58:08;;;;;;;3.08;1.75;;;;;;;;;;5095816;28;20458;-73
2023/08/02 08:00:33;;;;;;;2.00;1.45;;;;;;;;;;5095917;28;20020;-72
2023/08/02 08:02:58;;;;;;;7.57;1.73;;;;;;;;;;5113937;28;20096;-73
2023/08/02 08:05:25;;;;;;;5.28;1.95;;;;;;;;;;5113531;28;20427;-73
2023/08/02 08:07:50;;;;;;;3.22;1.77;;;;;;;;;;5095719;28;20030;-73
2023/08/02 08:10:16;;;;;;;4.72;1.80;;;;;;;;;;5095731;28;20480;-72
2023/08/02 08:12:41;;;;;;;7.85;1.80;;;;;;;;;;5101684;28;20039;-72
2023/08/02 08:15:07;;;;;;;5.15;1.70;;;;;;;;;;5092627;28;20053;-72
2023/08/02 08:17:32;;;;;;;5.38;1.70;;;;;;;;;;5092942;28;20044;-72
2023/08/02 08:19:58;;;;;;;5.20;1.63;;;;;;;;;;5092988;28;20056;-72
2023/08/02 08:22:28;;;;;;;4.47;1.88;;;;;;;;;;5093281;28;20367;-73
2023/08/02 08:24:54;;;;;;;2.00;1.48;;;;;;;;;;5076048;28;20056;-72
2023/08/02 08:27:19;;;;;;;4.28;1.75;;;;;;;;;;5075236;28;20050;-72
2023/08/02 08:29:44;;;;;;;3.55;1.38;;;;;;;;;;5074512;28;20376;-72
2023/08/02 08:32:10;;;;;;;4.30;1.83;;;;;;;;;;5092871;28;20016;-72
2023/08/02 08:34:35;;;;;;;6.90;1.70;;;;;;;;;;5092989;28;20027;-71
2023/08/02 08:37:00;;;;;;;6.10;1.80;;;;;;;;;;5093319;28;20050;-73
2023/08/02 08:39:26;;;;;;;3.40;2.00;;;;;;;;;;5074642;28;20393;-72
2023/08/02 08:41:51;;;;;;;4.07;1.85;;;;;;;;;;5092964;28;20024;-73
2023/08/02 08:44:16;;;;;;;3.15;2.13;;;;;;;;;;5113369;28;20157;-72
2023/08/02 08:46:42;;;;;;;6.85;2.47;;;;;;;;;;5113524;28;20020;-71
2023/08/02 08:49:07;;;;;;;4.55;2.35;;;;;;;;;;5095200;28;20027;-72
2023/08/02 08:51:34;;;;;;;5.00;2.47;;;;;;;;;;5113298;28;20033;-71
2023/08/02 08:54:04;;;;;;;5.43;1.95;;;;;;;;;;5094531;28;20027;-71
2023/08/02 08:56:32;;;;;;;2.53;1.60;;;;;;;;;;5113682;28;20451;-72
2023/08/02 08:58:59;;;;;;;3.65;1.73;;;;;;;;;;5095208;28;20099;-72
2023/08/02 09:01:25;;;;;;;4.28;1.80;;;;;;;;;;5098642;28;20035;-72
2023/08/02 09:03:50;;;;;;;4.53;2.03;;;;;;;;;;5098383;28;20027;-72
2023/08/02 09:06:16;;;;;;;3.72;2.30;;;;;;;;;;5117086;28;20027;-72
2023/08/02 09:08:43;;;;;;;2.60;1.70;;;;;;;;;;5081738;28;20115;-72
2023/08/02 09:11:08;;;;;;;7.35;1.98;;;;;;;;;;5081731;28;20107;-72
2023/08/02 09:13:34;;;;;;;5.28;2.72;;;;;;;;;;5116832;28;20074;-73
2023/08/02 09:16:17;;;;;;;4.10;2.13;;;;;;;;;;5116908;28;20031;-72
2023/08/02 09:18:44;;;;;;;3.05;1.83;;;;;;;;;;5116107;28;20024;-73
2023/08/02 09:21:13;;;;;;;3.15;1.70;;;;;;;;;;5098521;28;20511;-72
2023/08/02 09:23:38;;;;;;;3.15;1.95;;;;;;;;;;5098733;28;20055;-72
2023/08/02 09:26:10;;;;;;;4.15;2.05;;;;;;;;;;5116528;28;20501;-72
2023/08/02 09:28:35;;;;;;;3.17;2.33;;;;;;;;;;5098235;28;20035;-72
2023/08/02 09:31:16;;;;;;;4.57;2.35;;;;;;;;;;5115965;28;20024;-72
2023/08/02 09:33:52;;;;;;;4.18;2.80;;;;;;;;;;5098459;28;20023;-72
2023/08/02 09:36:22;;;;;;;5.40;2.50;;;;;;;;;;5098172;28;20384;-71
2023/08/02 09:38:57;;;;;;;3.35;2.15;;;;;;;;;;5098164;28;20016;-71
2023/08/02 09:41:24;;;;;;;3.53;2.30;;;;;;;;;;5116272;28;20096;-72
2023/08/02 09:43:51;;;;;;;3.78;2.67;;;;;;;;;;5097487;28;20058;-71
2023/08/02 09:46:26;;;;;;;6.88;2.53;;;;;;;;;;5098140;28;20392;-73
2023/08/02 09:48:51;;;;;;;6.25;2.78;;;;;;;;;;5097726;28;20023;-73
2023/08/02 09:51:17;;;;;;;3.03;2.30;;;;;;;;;;5115572;28;20023;-73
2023/08/02 09:53:53;;;;;;;3.50;2.30;;;;;;;;;;5097892;28;20062;-73
2023/08/02 09:56:21;;;;;;;3.35;2.70;;;;;;;;;;5115989;28;20492;-73
2023/08/02 09:58:46;;;;;;;3.65;2.28;;;;;;;;;;5097529;28;20465;-73
2023/08/02 10:01:12;;;;;;;3.70;1.98;;;;;;;;;;5115594;28;20024;-73
2023/08/02 10:03:51;;;;;;;5.47;2.35;;;;;;;;;;5080626;28;20045;-73
2023/08/02 10:06:17;;;;;;;3.30;2.28;;;;;;;;;;5097730;28;20026;-73
2023/08/02 10:08:42;;;;;;;3.78;2.40;;;;;;;;;;5098115;28;20028;-73
2023/08/02 10:11:08;;;;;;;4.65;2.60;;;;;;;;;;5097076;28;20102;-73
2023/08/02 10:13:40;;;;;;;4.20;2.50;;;;;;;;;;5097313;28;20040;-73
2023/08/02 10:16:06;;;;;;;3.10;2.50;;;;;;;;;;5096919;28;20020;-73
2023/08/02 10:18:32;;;;;;;5.90;2.80;;;;;;;;;;5115506;28;20057;-73
2023/08/02 10:21:00;;;;;;;5.85;2.67;;;;;;;;;;5115295;28;20023;-73
2023/08/02 10:23:26;;;;;;;7.43;2.78;;;;;;;;;;5115327;28;20023;-73
2023/08/02 10:25:52;;;;;;;3.58;2.58;;;;;;;;;;5097157;28;20019;-73
2023/08/02 10:28:18;;;;;;;3.92;2.42;;;;;;;;;;5096764;28;20030;-73
2023/08/02 10:30:43;;;;;;;3.05;2.63;;;;;;;;;;5097129;28;20058;-73
2023/08/02 10:33:12;;;;;;;3.03;2.50;;;;;;;;;;5097189;28;20031;-73
2023/08/02 10:36:07;;;;;;;3.25;2.40;;;;;;;;;;5096900;28;20508;-73
2023/08/02 10:38:38;;;;;;;2.95;2.35;;;;;;;;;;5093283;28;20076;-73
2023/08/02 10:41:08;;;;;;;2.97;2.22;;;;;;;;;;5114903;28;20088;-73
2023/08/02 10:43:34;;;;;;;6.95;2.55;;;;;;;;;;5097037;28;20039;-73
2023/08/02 10:46:18;;;;;;;3.55;2.25;;;;;;;;;;5096986;28;20416;-73
2023/08/02 10:48:46;;;;;;;5.68;2.78;;;;;;;;;;5096663;28;20540;-73
2023/08/02 10:51:26;;;;;;;4.55;2.30;;;;;;;;;;5114533;28;20413;-73
2023/08/02 10:54:15;;;;;;;3.67;3.30;;;;;;;;;;5096654;28;20023;-73
2023/08/02 10:56:53;;;;;;;3.25;2.60;;;;;;;;;;5096760;28;20076;-73
2023/08/02 10:59:24;;;;;;;3.72;2.30;;;;;;;;;;5114114;28;20011;-73
2023/08/02 11:01:54;;;;;;;8.07;2.08;;;;;;;;;;5096594;28;20023;-73
2023/08/02 11:04:19;;;;;;;4.70;2.38;;;;;;;;;;5096360;28;20050;-73
2023/08/02 11:06:45;;;;;;;3.47;2.28;;;;;;;;;;5096696;28;20430;-73
2023/08/02 11:09:10;;;;;;;4.90;2.80;;;;;;;;;;5096346;28;20055;-73
2023/08/02 11:11:36;;;;;;;4.72;2.55;;;;;;;;;;5096226;28;20072;-73
2023/08/02 11:14:02;;;;;;;2.60;2.20;;;;;;;;;;5114361;28;20038;-73
2023/08/02 11:16:28;;;;;;;4.15;2.72;;;;;;;;;;5114525;28;20023;-73
2023/08/02 11:18:53;;;;;;;4.15;2.33;;;;;;;;;;5095858;28;20019;-73
2023/08/02 11:21:18;;;;;;;3.97;2.03;;;;;;;;;;5096174;28;20102;-73
2023/08/02 11:23:49;;;;;;;4.20;2.20;;;;;;;;;;5113667;28;20023;-73
2023/08/02 11:26:16;;;;;;;8.02;2.20;;;;;;;;;;5080100;28;20020;-73
2023/08/02 11:28:42;;;;;;;3.88;2.00;;;;;;;;;;5095407;28;20513;-73
2023/08/02 11:31:08;;;;;;;3.30;1.88;;;;;;;;;;5096314;28;20046;-73
2023/08/02 11:33:35;;;;;;;5.20;2.80;;;;;;;;;;5096200;28;20453;-73
2023/08/02 11:36:00;;;;;;;4.38;2.22;;;;;;;;;;5095585;28;20028;-73
2023/08/02 11:38:25;;;;;;;4.18;2.42;;;;;;;;;;5095895;28;20110;-73
2023/08/02 11:40:51;;;;;;;3.90;2.28;;;;;;;;;;5095885;28;20038;-73
2023/08/02 11:43:16;;;;;;;6.25;2.80;;;;;;;;;;5114196;28;20102;-73
2023/08/02 11:45:41;;;;;;;3.67;2.13;;;;;;;;;;5095584;28;20027;-73
2023/08/02 11:48:23;;;;;;;3.22;2.22;;;;;;;;;;5114340;28;20026;-73
2023/08/02 11:50:48;;;;;;;5.03;2.35;;;;;;;;;;5096107;28;20098;-73
2023/08/02 11:53:14;;;;;;;3.88;2.10;;;;;;;;;;5096120;28;20055;-73
2023/08/02 11:55:39;;;;;;;8.32;2.35;;;;;;;;;;5095356;28;20027;-73
2023/08/02 11:58:05;;;;;;;3.72;2.20;;;;;;;;;;5096656;28;20023;-73
2023/08/02 12:00:33;;;;;;;3.80;2.28;;;;;;;;;;5113954;28;20051;-73
2023/08/02 12:03:12;;;;;;;6.70;2.20;;;;;;;;;;5078104;28;20032;-73
2023/08/02 12:05:39;;;;;;;6.72;2.85;;;;;;;;;;5095389;28;20503;-73
2023/08/02 12:08:10;;;;;;;6.00;2.78;;;;;;;;;;5078460;28;20027;-73
2023/08/02 12:10:36;;;;;;;4.45;2.30;;;;;;;;;;5078596;28;20102;-73
2023/08/02 12:13:09;;;;;;;5.47;2.40;;;;;;;;;;5095306;28;20055;-73
2023/08/02 12:15:35;;;;;;;6.32;2.45;;;;;;;;;;5094619;28;20028;-73
2023/08/02 12:18:03;;;;;;;5.15;2.30;;;;;;;;;;5113652;28;20019;-73
2023/08/02 12:20:30;;;;;;;5.30;2.30;;;;;;;;;;5095553;28;20448;-73
2023/08/02 12:22:55;;;;;;;8.00;2.53;;;;;;;;;;5113384;28;20035;-73
2023/08/02 12:25:20;;;;;;;3.65;2.85;;;;;;;;;;5113502;28;20074;-73
2023/08/02 12:28:02;;;;;;;8.32;2.30;;;;;;;;;;5094903;28;20020;-73
2023/08/02 12:30:28;;;;;;;4.50;2.70;;;;;;;;;;5095475;28;20040;-73
2023/08/02 12:32:53;;;;;;;9.35;3.50;;;;;;;;;;5095365;28;20055;-73
2023/08/02 12:35:18;;;;;;;8.35;3.10;;;;;;;;;;5098971;28;20459;-73
2023/08/02 12:37:47;;;;;;;8.88;3.00;;;;;;;;;;5117684;28;20024;-73
2023/08/02 12:40:12;;;;;;;6.68;3.45;;;;;;;;;;5117185;28;20024;-73
2023/08/02 12:42:37;;;;;;;4.90;3.42;;;;;;;;;;5082184;28;20031;-73
2023/08/02 12:45:03;;;;;;;5.43;3.15;;;;;;;;;;5117402;28;20023;-73
2023/08/02 12:47:28;;;;;;;5.38;3.60;;;;;;;;;;5117437;28;20047;-73
2023/08/02 12:49:56;;;;;;;5.03;3.28;;;;;;;;;;5117665;28;20080;-73
2023/08/02 12:52:21;;;;;;;6.35;3.33;;;;;;;;;;5117266;28;20512;-73
2023/08/02 12:54:47;;;;;;;6.15;3.40;;;;;;;;;;5116792;28;20157;-74
2023/08/02 12:57:12;;;;;;;6.35;3.85;;;;;;;;;;5117387;28;20015;-73
2023/08/02 12:59:37;;;;;;;6.30;3.47;;;;;;;;;;5117102;28;20023;-73
2023/08/02 13:02:03;;;;;;;12.05;4.15;;;;;;;;;;5117056;28;20022;-73
2023/08/02 13:04:28;;;;;;;6.88;4.10;;;;;;;;;;5117347;28;20027;-73
2023/08/02 13:06:53;;;;;;;6.40;3.83;;;;;;;;;;5098936;28;20476;-73
2023/08/02 13:09:19;;;;;;;7.00;4.53;;;;;;;;;;5099317;28;20377;-74
2023/08/02 13:11:44;;;;;;;6.28;3.15;;;;;;;;;;5117443;28;20027;-74
2023/08/02 13:14:10;;;;;;;6.85;2.90;;;;;;;;;;5081902;28;20038;-76
2023/08/02 13:16:35;;;;;;;9.25;3.75;;;;;;;;;;5098267;28;20026;-76
2023/08/02 13:19:00;;;;;;;4.78;2.97;;;;;;;;;;5116999;28;20058;-76
2023/08/02 13:21:26;;;;;;;4.93;2.72;;;;;;;;;;5116960;28;20030;-76
2023/08/02 13:23:51;;;;;;;5.97;3.00;;;;;;;;;;5081761;28;20027;-76
2023/08/02 13:26:16;;;;;;;9.00;3.90;;;;;;;;;;5116452;28;20020;-76
2023/08/02 13:28:42;;;;;;;5.78;3.20;;;;;;;;;;5116834;28;20030;-76
2023/08/02 13:31:07;;;;;;;8.27;3.38;;;;;;;;;;5116816;28;20019;-76
2023/08/02 13:33:32;;;;;;;4.70;3.00;;;;;;;;;;5098878;28;20024;-76
2023/08/02 13:35:58;;;;;;;5.38;2.90;;;;;;;;;;5116804;28;20469;-76
2023/08/02 13:38:23;;;;;;;4.70;3.10;;;;;;;;;;5116940;28;20028;-76
2023/08/02 13:40:50;;;;;;;8.02;3.05;;;;;;;;;;5116148;28;20020;-76
2023/08/02 13:43:15;;;;;;;5.40;3.67;;;;;;;;;;5081591;28;20023;-76
2023/08/02 13:45:41;;;;;;;5.68;3.08;;;;;;;;;;5080557;28;20115;-76
2023/08/02 13:48:06;;;;;;;4.78;3.13;;;;;;;;;;5098305;28;20073;-76
2023/08/02 13:50:32;;;;;;;11.77;5.43;;;;;;;;;;5117016;28;20376;-76
2023/08/02 13:52:58;;;;;;;11.00;8.13;;;;;;;;;;5115943;28;20019;-76
2023/08/02 13:55:23;;;;;;;10.43;7.07;;;;;;;;;;5116263;28;20491;-76
2023/08/02 13:57:48;;;;;;;8.90;6.15;;;;;;;;;;5098090;28;20027;-73
2023/08/02 14:00:14;;;;;;;5.88;4.10;;;;;;;;;;5115891;28;20028;-73
2023/08/02 14:02:39;;;;;;;7.32;4.38;;;;;;;;;;5115252;28;20031;-74
2023/08/02 14:05:04;;;;;;;5.00;3.63;;;;;;;;;;5116045;28;20035;-74
2023/08/02 14:07:30;;;;;;;8.40;3.90;;;;;;;;;;5115976;28;20096;-73
2023/08/02 14:09:55;;;;;;;5.80;3.53;;;;;;;;;;5085471;28;20020;-73
2023/08/02 14:12:20;;;;;;;5.97;3.80;;;;;;;;;;5097562;28;20473;-73
2023/08/02 14:14:46;;;;;;;7.22;4.53;;;;;;;;;;5096628;28;20106;-74
2023/08/02 14:17:11;;;;;;;7.85;4.10;;;;;;;;;;5097451;28;20024;-73
2023/08/02 14:19:36;;;;;;;8.65;3.92;;;;;;;;;;5115712;28;20024;-73
2023/08/02 14:22:02;;;;;;;8.63;3.75;;;;;;;;;;5115656;28;20499;-73
2023/08/02 14:24:27;;;;;;;9.20;3.88;;;;;;;;;;5114996;28;20065;-73
2023/08/02 14:26:52;;;;;;;5.95;3.53;;;;;;;;;;5115663;28;20027;-73
2023/08/02 14:29:17;;;;;;;6.45;3.58;;;;;;;;;;5097342;28;20023;-73
2023/08/02 14:31:43;;;;;;;7.00;4.28;;;;;;;;;;5115492;28;20038;-73
2023/08/02 14:34:08;;;;;;;9.10;4.78;;;;;;;;;;5097426;28;20045;-73
2023/08/02 14:36:33;;;;;;;5.97;3.88;;;;;;;;;;5114906;28;20480;-74
2023/08/02 14:38:59;;;;;;;8.23;3.95;;;;;;;;;;5115874;28;20069;-74